• Join FlightAware (Why Join?)
  • Login
  • US Flag 
03:35PM EDT


 

Airport Tracker/Info


-or-


 

Live Flight TrackerFlight Track Log ✈ KLM1884 ✈ 29-Aug-2014 ✈ EDDN / NUE - EHAM / AMS

Flight Track Log - Related Links

Times and Time Zones

All times are in EDT time to prevent confusion due to time zone crossing. See the KLM1884 flight status page for this flight to view local times or setup timezone preferences in your user account.

Time Position Orientation Groundspeed Altitude Reporting Facility
EDT Latitude Longitude Course Direction KTS MPH feet Rate Location/Type
04:30AM 49.7266 10.6189 308° West  Level Estimated
04:31AM 49.7833 10.5035 307° West  Level Estimated
04:32AM 49.8399 10.3878 307° West  Level Estimated
04:33AM 49.8963 10.2718 307° West  Level Estimated
04:34AM 49.9527 10.1555 307° West  Level Estimated
04:35AM 50.0089 10.0389 307° West  Level Estimated
04:36AM 50.0650 9.9221 307° West  Level Estimated
04:37AM 50.1210 9.8050 307° West  Level Estimated
04:38AM 50.1769 9.6877 307° West  Level Estimated
04:39AM 50.2327 9.5700 307° West  Level Estimated
04:40AM 50.2883 9.4521 306° West  Level Estimated
04:41AM 50.3439 9.3339 306° West  Level Estimated
04:42AM 50.3993 9.2154 306° West  Level Estimated
04:43AM 50.4546 9.0967 306° West  Level Estimated
04:44AM 50.5097 8.9777 306° West  Level Estimated
04:45AM 50.5648 8.8584 306° West  Level Estimated
04:46AM 50.6197 8.7388 306° West  Level Estimated
04:47AM 50.6745 8.6189 306° West  Level Estimated
04:48AM 50.7291 8.4988 306° West  Level Estimated
04:49AM 50.7837 8.3784 306° West  Level Estimated
04:50AM 50.8381 8.2577 306° West  Level Estimated
04:51AM 50.8924 8.1367 305° West  Level Estimated
04:52AM 50.9466 8.0154 305° West  Level Estimated
04:53AM 51.0006 7.8939 305° West  Level Estimated
04:54AM 51.0546 7.7720 305° West  Level Estimated
04:55AM 51.1084 7.6499 305° West  Level Estimated
04:56AM 51.1620 7.5275 305° West  Level Estimated
04:57AM 51.2156 7.4049 305° West  Level Estimated
04:58AM 51.2690 7.2819 305° West  Level Estimated
04:59AM 51.3223 7.1586 305° West  Level Estimated
05:00AM 51.3754 7.0351 305° West  Level Estimated
05:01AM 51.4285 6.9113 305° West  Level Estimated
05:02AM 51.4814 6.7871 304° West  Level Estimated
05:03AM 51.5341 6.6627 304° West  Level Estimated
05:04AM 51.5868 6.5381 304° West  Level Estimated
05:05AM 51.6393 6.4131 304° West  Level Estimated
05:06AM 51.6916 6.2878 304° West  Level Estimated
05:07AM 51.7438 6.1623 304° West  Level Estimated
05:08AM 51.7959 6.0364 304° West  Level Estimated
05:09AM 51.8479 5.9103 304° West  Level Estimated
05:10AM 51.8997 5.7838 304° West  Level Estimated
05:11AM 51.9514 5.6571 304° West  Level Estimated
05:12AM 52.0030 5.5301 303° West  Level Estimated
05:13AM 52.0544 5.4028 303° West  Level Estimated
05:14AM 52.1057 5.2752 303° West  Level Estimated
05:15AM 52.1568 5.1473 303° West  Level Estimated
05:16AM 52.2078 5.0191 303° West  Level Estimated
05:17AM 52.2587 4.8906 303° West  Level Estimated
05:18AM 52.3086 4.7639 303° West  Level Estimated
05:19AM 52.3086 4.7639 North  Level Estimated
05:20AM 52.3086 4.7639 North  Level Estimated
05:21AM 52.3086 4.7639 North  Level Estimated
05:22AM 52.3086 4.7639 North  Level Estimated
05:23AM 52.3086 4.7639 North  Level Estimated
05:24AM 52.3086 4.7639 North  Level Estimated
05:25AM 52.3086 4.7639 North  Level Estimated
05:26AM 52.3086 4.7639 North  Level Estimated
05:27AM 52.3086 4.7639 North  Level Estimated
05:28AM 52.3086 4.7639 North  Level Estimated
05:29AM 52.3086 4.7639 North  Level Estimated
05:30AM 52.3086 4.7639 North  Level Estimated
05:31AM 52.3086 4.7639 North  Level Estimated
05:32AM 52.3086 4.7639 North  Level Estimated
05:33AM 52.3086 4.7639 North  Level Estimated
05:34AM 52.3086 4.7639 North  Level Estimated